NWS Home NWS Lubbock West Texas Mesonet Latest Conditions as of 0651 PM, Sat May 25, 2019

Latest   N   C   S   Daily Sum   3hrΔ   24hrΔ   Soil Data 
Site Map   24hr Precip   72hr Precip   Google Plot


Station Time of Last Temp Dew Pt. RH Wind Direction Wind Speed Wind Gust Max Wind Max Temp Min Temp Max RH Min RH Altimeter 1HR Rain Today's Rain Solar Rad Wind ChillRed FlagRFTI
Abernathy 5ENE  06:45 PM 74 67 83% S1113 35 mph 141° @ 0525 PM 75 63 98 82 29.97" 0 0 143     0
Adrian 6WSW  06:45 PM 71 62 73% SE2328 40 mph 121° @ 0244 PM 79 58 98 55 29.93" 0 0.23 362     0
Aiken 3WSW  06:45 PM 63 62 97% N1516 30 mph 153° @ 0545 PM 72 62 99 78 29.97" 0.24 0.24 2     0
Amarillo 15NNW   06:45 PM 70 62 76% SE1418 29 mph 290° @ 0349 PM 80 59 100 66 29.92" 0 0.34 350     0
Amarillo 7SSE  06:45 PM 67 64 89% SE1317 31 mph 162° @ 0329 PM 77 59 100 70 29.95" 0 0.27 197     0
Amarillo 9NNE  06:45 PM 70 63 79% SE1418 32 mph 173° @ 0653 AM 79 59 99 67 29.92" 0 0.52 404     0
Amherst 1NE  06:45 PM 68 58 73% SE1215 43 mph 167° @ 0555 PM 73 60 97 73 29.92" 0.22 1.33 352     0
Andrews 2E  06:45 PM 82 61 50% SE1524 32 mph 135° @ 0605 PM 86 69 84 48 29.91" 0 0 327     0
Anton 6SSW  06:45 PM 78 66 71% S2026 44 mph 151° @ 0500 PM 79 63 97 67 29.93" 0 0 366     0
Aspermont 3NE  06:45 PM 84 70 63% SE1627 29 mph 176° @ 0100 PM 86 70 91 62 29.87" 0 0 247     0
Big Bend NP - Castolon  06:40 PM 106 29 7% S46 25 mph 131° @ 0541 AM 108 82 58 7 29.71" 0 0 375     0
Big Bend NP - Persimmon Gap  06:45 PM 95 63 35% NE1623 27 mph 63° @ 0637 PM 103 72 87 10 29.80" 0 0 327     0
Big Lake 1WNW  06:45 PM 78 66 68% SE914 32 mph 162° @ 0429 AM 84 71 92 59 29.94" 0 0 7     0
Bootleg 11WNW  06:45 PM 74 63 69% SE1921 30 mph 6° @ 0153 PM 78 55 100 53 29.95" 0 0.88 330     0
Boys Ranch 1WSW  06:45 PM 73 64 74% SE1416 35 mph 191° @ 0124 AM 82 59 95 56 29.90" 0 0.37 358     0
Brownfield 2S  06:45 PM 83 64 55% S2734 39 mph 173° @ 0600 PM 86 65 94 50 29.90" 0 0 333     0
Canadian 6E  06:45 PM 61 61 100% NE1115 40 mph 285° @ 0521 PM 77 60 100 78 29.89" 0.03 0.67 13     0
Caprock Canyons State Park  06:45 PM 70 67 91% SE00 27 mph 165° @ 1208 AM 76 63 99 78 29.93" 0 0 0     0
Childress 2NNE  06:45 PM 79 68 72% S1621 28 mph 173° @ 0530 PM 81 61 100 70 29.87" 0 0 11     0
Clarendon 2WSW  06:45 PM 67 64 94% NW45 37 mph 277° @ 0420 PM 75 62 98 80 29.95" 0.05 0.98 2     0
Claude 12SW  06:45 PM 63 62 96% N67 35 mph 137° @ 0409 PM 73 62 100 76 29.97" 0 0.31 19     0
Clyde 2WNW  06:45 PM 80 71 72% SE910 30 mph 168° @ 0242 PM 85 69 91 61 29.95" 0 0 112     0
Colorado City 5NW  06:45 PM 82 69 64% SE1720 29 mph 161° @ 0958 AM 83 69 94 63 29.89" 0 0 491     0
Coyanosa 2N  06:45 PM 76 63 64% E1821 35 mph 88° @ 0528 PM 88 71 83 52 29.85" 0 0.02 357     0
Crane 1NNW   06:45 PM 71 63 76% SE1417 35 mph 143° @ 0637 PM 87 64 95 54 29.89" 0.01 0.71 101     0
Crowell 1E  06:45 PM 84 71 65% S1922 33 mph 177° @ 0640 PM 87 65 99 59 29.86" 0 0 61     0
Dell City  06:45 PM 93 36 14% SW1015 24 mph 238° @ 0512 PM 94 54 60 11 29.86" 0 0 417     0
Denver City 7WNW  06:45 PM 82 62 54% SE2128 49 mph 182° @ 0435 PM 87 63 97 39 29.90" 0 0.51 361     0
Dimmitt 2NE  06:45 PM 66 60 84% SE2332 37 mph 147° @ 0255 PM 77 64 96 64 29.97" 0.02 0.05 58     0
Dora NM 2SW  06:45 PM 84 42 23% SW1924 55 mph 140° @ 0115 PM 86 62 100 23 29.89" 0 0.63 367     0
Dozier 3W  06:45 PM 67 66 94% NW1420 25 mph 229° @ 0519 PM 78 62 100 81 29.92" 0 0.55 10     0
Earth 9WSW  06:45 PM 67 61 81% NE88 42 mph 138° @ 0609 PM 75 63 96 70 29.96" 0 0.09 243     0
Endee NM 2SW  06:45 PM 77 65 64% SE1825 43 mph 188° @ 0210 PM 80 59 96 48 29.88" 0 0.59 361     0
Estelline 3SSE  06:45 PM 79 70 74% S912 23 mph 182° @ 1223 PM 81 63 98 69 29.88" 0 0 5     0
Floydada 2NNE  06:45 PM 74 67 81% SE1419 29 mph 143° @ 0510 PM 77 63 99 78 29.95" 0 0.01 10     0
Fluvanna 3WNW  06:45 PM 82 64 58% S2835 38 mph 157° @ 0555 PM 83 68 95 57 29.90" 0 0 279     0
Fort Chadbourne  06:45 PM 80 69 70% S68 27 mph 149° @ 0153 PM 85 69 100 61 29.93" 0 0.01 46     0
Fort Lancaster  06:45 PM 87 67 52% SE2227 34 mph 139° @ 0451 AM 89 75 89 52 29.90" 0 0 362     0
Fort Lewis CO  06:45 PM 65 22 19% SW814 23 mph 220° @ 0620 PM 67 36 67 18 30.09" 0 0 507     0
Fort McKavett  06:45 PM 84 65 54% SE1622 30 mph 161° @ 0348 PM 88 72 86 51 29.96" 0 0 120     0
Friona 2NE  06:45 PM 74 63 72% SE2231 33 mph 137° @ 0200 PM 78 60 98 61 29.94" 0.01 0.15 391     0
Fritch 1WNW  06:45 PM 71 61 71% S1317 40 mph 243° @ 0331 PM 81 61 93 62 29.91" 0 0.28 339     0
Gail 2ESE  06:45 PM 82 65 59% S2028 32 mph 150° @ 0530 PM 84 68 93 58 29.89" 0 0 322     0
Goodlett 3W  06:45 PM 81 69 72% S1518 31 mph 164° @ 0530 PM 84 62 98 65 29.83" 0 0.02 18     0
Goodnight  06:45 PM 62 62 100% N12 24 mph 155° @ 0318 AM 74 58 100 87 29.99" 0.03 0.36 12     0
Graham 5SSW  06:45 PM 80 65 63% S2838 44 mph 154° @ 0500 PM 81 68 96 61 29.89" 0 0 376     0
Guadalupe Mtns Natl Park  06:45 PM 84 23 11% SW1215 29 mph 241° @ 0332 PM 86 61 77 10 30.02" 0 0 409   2 0
Guthrie 10WSW  06:45 PM 82 67 65% SE2029 31 mph 171° @ 1230 PM 84 64 96 63 29.84" 0 0.01 129     0
Hackberry 2 SSE  06:45 PM 82 71 68% S1517 31 mph 173° @ 0549 PM 87 64 99 59 29.88" 0 0.01 70     0
Happy 1E  06:45 PM 64 61 90% SE811 33 mph 161° @ 0344 PM 77 62 98 69 29.97" 0.01 0.15 17     0
Hart 3N  06:45 PM 63 60 92% SE512 36 mph 143° @ 0630 PM 72 62 98 70 29.98" 0.07 0.15 60     0
Haskell 1NW  06:45 PM 84 68 61% SE1524 28 mph 172° @ 1220 PM 87 71 87 58 29.86" 0 0 301     0
Hereford 2NW  06:45 PM 72 62 72% SE1422 42 mph 251° @ 0325 PM 79 58 98 61 29.93" 0 0.46 413     0
Hobbs NM 5NW  06:45 PM 84 60 45% S2025 49 mph 176° @ 0408 PM 88 67 88 25 29.93" 0 0 343     0
Jayton 1SSE  06:45 PM 84 67 60% SE1625 30 mph 166° @ 1010 AM 84 66 94 59 29.87" 0 0 369     0
Junction 1SSW  06:45 PM 86 66 50% SE1719 30 mph 140° @ 0107 PM 90 73 94 48 29.95" 0 0 260     0
Knox City 3NW  06:45 PM 85 69 63% S1724 33 mph 171° @ 1145 AM 89 69 94 55 29.87" 0 0 166     0
Lake Alan Henry 1NW  06:45 PM 83 67 58% S2431 36 mph 181° @ 0620 PM 84 70 90 56 29.87" 0 0 241     0
Lake McClellan 2NW  06:45 PM 62 60 94% W67 46 mph 279° @ 0427 PM 72 60 99 82 29.98" 0.12 1.28 55     0
Lamesa 2SE  06:45 PM 82 65 61% SE2231 36 mph 154° @ 0555 PM 83 68 95 59 29.91" 0 0 351     0
Lesley 2S  06:45 PM 72 70 93% NW1114 24 mph 172° @ 0110 PM 78 62 98 75 29.90" 0 0.01 1     0
Levelland 4S  06:45 PM 82 63 57% S2531 43 mph 156° @ 0420 PM 84 63 98 53 29.92" 0 0 328     0
Lomax 1SSE  06:45 PM 80 68 68% SE2124 36 mph 171° @ 0123 PM 86 70 96 55 29.89" 0 0.02 132     0
Lubbock 3WNW TTU  06:45 PM 79 66 67% S1320 35 mph 157° @ 0555 PM 80 63 100 65 29.93" 0 0.01 291     0
McCamey 1SSW  06:45 PM 66 63 90% N2428 57 mph 277° @ 0625 PM 87 63 99 55 29.94" 0.81 0.81 3     0
McLean 1E  06:45 PM 60 59 100% NE913 45 mph 250° @ 0500 PM 73 60 100 86 29.94" 0.16 1.26 12     0
Memphis 1NE  06:45 PM 75 70 87% NW46 22 mph 169° @ 0140 PM 78 62 99 77 29.89" 0 0 3     0
Menard 2NW   06:45 PM 82 67 60% SE911 30 mph 159° @ 0356 PM 87 72 94 52 29.96" 0 0 89     0
Mertzon 3NNE  06:45 PM 80 67 64% S1013 31 mph 160° @ 0416 PM 86 71 100 57 29.93" 0 0 17     0
Morton 1ENE  06:45 PM 78 66 70% S2130 47 mph 202° @ 0135 PM 78 58 100 54 29.90" 0 1.04 357     0
Muleshoe 2SSW  06:45 PM 70 60 73% SE1417 34 mph 143° @ 0215 PM 77 64 97 61 29.91" 0.01 0.37 371     0
New Home  06:45 PM 81 66 61% S1828 35 mph 179° @ 0603 PM 82 63 98 61 29.94" 0 0 382     0
Northfield 1S  06:45 PM 77 68 76% S912 25 mph 177° @ 0540 PM 81 62 98 68 29.88" 0 0.03 6     0
O'Donnell 1N  06:45 PM 81 62 55% S2432 34 mph 161° @ 0555 PM 83 68 99 54 29.90" 0 0 297     0
Odell 4ENE  06:45 PM 82 71 69% SE1922 31 mph 156° @ 0603 PM 85 64 96 63 29.87" 0 0 41     0
Olton 6S  06:45 PM M M M% S1114 52 mph 35° @ 0250 PM 90** M 99 M 29.92" 0.48 2.96 233 XX 20 0
Paducah 10SW  06:45 PM 80 69 74% S913 30 mph 171° @ 0505 PM 84 63 100 64 29.89" 0 0 57     0
Palo Duro 4E (JA Ranch)  06:45 PM 69 68 97% SW1315 35 mph 187° @ 0428 PM 76 60 100 79 29.98" 0.20 0.57 1     0
Palo Duro Canyon SP Floor  06:45 PM 66 64 91% SE23 23 mph 141° @ 0235 PM 79 64 95 68 29.93" 0 0.25 24     0
Palo Duro Canyon State Park Rim  06:45 PM 64 61 91% S58 29 mph 137° @ 0248 PM 76 62 96 70 29.96" 0 0.84 38     0
Palo Duro Reservoir 1NW   06:45 PM 68 58 71% SE78 55 mph 197° @ 0414 PM 83 57 97 59 29.91" 0 0.54 343     0
Pampa 2E  06:45 PM 60 58 95% SE1318 36 mph 300° @ 0500 PM 74 59 100 77 29.94" 0.08 0.34 21     0
Panhandle 1SSW  06:45 PM 65 61 85% SE1517 33 mph 170° @ 0356 PM 75 58 100 76 29.95" 0.21 0.39 160     0
Plains 3N  06:45 PM 81 65 61% SE2130 66 mph 157° @ 0455 PM 87 63 97 46 29.91" 0 0.15 372     0
Plainview 1S  06:45 PM 62 61 99% NW1730 39 mph 325° @ 0555 PM 70 61 100 86 29.97" 1.69 2.53 3     0
Post 1NE  06:45 PM 83 66 58% S2030 35 mph 167° @ 0615 PM 83 65 99 58 29.89" 0 0 334     0
Ralls 1SE  06:45 PM 75 66 77% SE1316 28 mph 146° @ 0500 PM 78 63 97 74 29.94" 0 0.01 120     0
Reese Center  06:45 PM 80 67 66% S2228 43 mph 155° @ 0535 PM 82 63 96 64 29.93" 0 0.01 331     0
Roaring Springs 3N  06:45 PM 76 70 87% S1217 30 mph 155° @ 0455 PM 80 60 100 78 29.91" 0 0 26     0
Romero 11 SSW  06:45 PM 76 60 57% SE1416 27 mph 137° @ 0324 PM 82 58 99 48 29.89" 0 0.01 370     0
Rotan 5W  06:45 PM 85 68 57% SE2631 35 mph 156° @ 0632 PM 85 70 91 56 29.87" 0 0 335     0
San Angelo 7NW  06:45 PM 82 64 57% SE1013 28 mph 153° @ 0405 PM 88 70 92 47 29.91" 0 0.02 16     0
Seagraves 1SW  06:45 PM 83 64 54% S2432 36 mph 150° @ 0430 PM 88 67 93 48 29.90" 0 0.02 337     0
Segovia 7SSW  06:45 PM 83 64 53% SE1217 32 mph 131° @ 0340 PM 86 72 91 50 29.98" 0 0 281     0
Seminole 2NNE  06:45 PM 83 62 53% SE2329 33 mph 143° @ 0625 PM 86 66 90 49 29.90" 0 0 385     0
Seymour 3NW  06:45 PM 83 69 65% SE1926 31 mph 161° @ 0135 PM 87 67 93 60 29.86" 0 0 80     0
Sierra Blanca 1SSE  06:45 PM 91 26 9% S1114 34 mph 208° @ 0457 PM 92 56 64 9 29.93" 0 0 439   11 0
Silverton 7ESE  06:45 PM 67 64 96% W1215 27 mph 145° @ 0300 AM 73 63 100 85 29.96" 0.07 0.08 1     0
Slaton 2NE  06:45 PM 79 66 67% S1925 35 mph 163° @ 0455 PM 81 64 99 66 29.93" 0 0.01 132     0
Smyer  06:45 PM 80 67 65% S1419 37 mph 163° @ 0458 PM 82 64 97 54 29.93" 0 0.01 329     0
Snyder 3E  06:40 PM 83 66 61% S2534 37 mph 157° @ 0615 PM 84 68 99 58 29.87" 0 0 334     0
Snyder 3SSW  06:45 PM 83 67 59% S2327 35 mph 152° @ 0624 PM 84 69 97 58 29.89" 0 0 346     0
South Plains 3ENE  06:45 PM 64 61 91% SW1420 36 mph 245° @ 0635 PM 74 63 99 79 29.98" 0.10 0.10 0     0
Spur 1W  06:45 PM 81 67 66% S811 25 mph 179° @ 1240 PM 81 64 93 66 29.89" 0 0 165     0
St. Lawrence 5SW  06:45 PM 75 68 81% SE1517 31 mph 160° @ 0120 PM 82 70 100 62 29.93" 0 0.03 4     0
Stamford 5ESE  06:45 PM 86 70 60% S2124 33 mph 166° @ 1132 AM 89 71 85 55 29.89" 0 0 213     0
Sterling City 4WSW  06:45 PM 77 68 74% SE55 30 mph 147° @ 0203 PM 86 69 100 55 29.94" 0 0.07 7     0
Stinnett 1NNW  06:45 PM 64 58 82% SE1114 48 mph 281° @ 0352 PM 80 56 100 63 29.92" 0 0.71 381     0
Sundown 8WSW  06:45 PM 81 64 61% S2331 54 mph 163° @ 0505 PM 85 64 98 50 29.91" 0 0.07 325     0
Sweetwater 11SW   06:45 PM 78 68 70% S1012 30 mph 159° @ 0120 PM 84 68 96 61 29.94" 0 0 46     0
Tahoka 3NNE  06:45 PM 80 66 62% S2630 38 mph 169° @ 0612 PM 82 64 96 61 29.92" 0 0 331     0
Tarzan 2WNW  06:45 PM 82 67 61% SE1821 35 mph 150° @ 0441 PM 84 70 96 58 29.91" 0 0 321     0
Tatum NM 2SW  06:45 PM 83 60 48% SE2330 41 mph 142° @ 1215 PM 90 59 93 19 29.91" 0 0.32 423     0
Throckmorton 1SW  01:15 PM 82 71 68% S811 28 mph 166° @ 1219 PM 85 69 91 64 --0 0 526     0
Tulia 2ENE  06:45 PM 64 61 93% E811 52 mph 186° @ 0325 PM 72 61 98 64 29.99" 0.10 0.78 2     0
Turkey 2WSW  06:45 PM 76 69 81% E913 24 mph 140° @ 1215 PM 77 63 100 78 29.90" 0 0 2     0
Umbarger 3NNE  06:45 PM 71 64 79% SE2023 30 mph 165° @ 0323 PM 79 62 95 66 29.95" 0 0.09 470     0
Van Horn 3ENE  06:45 PM 94 27 9% SW1013 26 mph 201° @ 0331 PM 95 66 85 8 29.89" 0 0 449     0
Vigo Park  06:45 PM 66 61 86% NW1010 47 mph 158° @ 0546 PM 75 62 100 68 30.00" 0.10 1.45 3     0
Wall 2E  06:45 PM 84 66 54% SE1517 34 mph 158° @ 0350 PM 92 73 86 44 29.93" 0 0 28     0
Weinert 2NNE  06:45 PM 84 70 63% SE1620 34 mph 191° @ 1145 AM 88 69 91 53 29.88" 0 0 227     0
Welch  06:45 PM 83 66 58% S2428 36 mph 160° @ 0544 PM 88 67 99 51 29.92" 0 0 164     0
White River Lake 6NW  06:45 PM 80 66 67% SE1317 25 mph 146° @ 0400 PM 80 64 94 67 29.91" 0 0 163     0
Wolfforth 6SSW  06:45 PM 80 66 66% S1926 41 mph 176° @ 0525 PM 82 63 99 32 29.92" 0 0.01 309     0

West Texas Mesonet Home   Site Map/Menu  NWS Lubbock Soil Data  Daily Summary Page  24hr Precip  72hr Precip  Google Plot